createdAt,value
2019-03-26T00:01:08.397Z,102245.59
2019-03-26T00:03:38.364Z,102238.80
2019-03-26T00:06:08.955Z,102253.56
2019-03-26T00:08:38.412Z,102261.73
2019-03-26T00:11:07.922Z,102253.23
2019-03-26T00:13:37.354Z,102258.81
2019-03-26T00:16:06.850Z,102252.52
2019-03-26T00:18:36.293Z,102264.55
2019-03-26T00:21:07.240Z,102265.97
2019-03-26T00:23:36.686Z,102266.50
2019-03-26T00:26:07.724Z,102270.48
2019-03-26T00:28:37.138Z,102272.73
2019-03-26T00:31:06.578Z,102274.48
2019-03-26T00:33:37.075Z,102266.84
2019-03-26T00:36:06.651Z,102268.14
2019-03-26T00:38:36.200Z,102267.82
2019-03-26T00:41:08.625Z,102270.87
2019-03-26T00:43:38.126Z,102274.78
2019-03-26T00:46:09.249Z,102274.31
2019-03-26T00:48:41.636Z,102276.90
2019-03-26T00:51:14.054Z,102272.22
2019-03-26T00:53:43.567Z,102270.45
2019-03-26T00:56:13.009Z,102269.48
2019-03-26T00:58:42.839Z,102270.36
2019-03-26T01:01:12.921Z,102273.38
2019-03-26T01:03:43.304Z,102267.73
2019-03-26T01:06:12.727Z,102274.17
2019-03-26T01:08:42.395Z,102275.00
2019-03-26T01:11:11.876Z,102279.79
2019-03-26T01:13:41.318Z,102280.17
2019-03-26T01:16:10.878Z,102284.02
2019-03-26T01:18:40.315Z,102293.45
2019-03-26T01:21:09.735Z,102290.84
2019-03-26T01:23:39.177Z,102290.94
2019-03-26T01:26:08.697Z,102297.13
2019-03-26T01:28:39.122Z,102300.87
2019-03-26T01:31:08.615Z,102311.75
2019-03-26T01:33:38.053Z,102305.83
2019-03-26T01:36:07.559Z,102307.63
2019-03-26T01:38:40.049Z,102308.94
2019-03-26T01:41:09.532Z,102313.75
2019-03-26T01:43:38.979Z,102323.89
2019-03-26T01:46:08.469Z,102316.25
2019-03-26T01:48:39.268Z,102313.64
2019-03-26T01:51:08.713Z,102310.67
2019-03-26T01:53:38.153Z,102311.48
2019-03-26T01:56:07.589Z,102308.94
2019-03-26T01:58:37.015Z,102309.87
2019-03-26T02:01:06.566Z,102301.66
2019-03-26T02:03:36.078Z,102300.79
2019-03-26T02:06:06.648Z,102293.80
2019-03-26T02:08:36.156Z,102293.97
2019-03-26T02:11:05.642Z,102293.59
2019-03-26T02:13:37.469Z,102298.34
2019-03-26T02:16:06.886Z,102301.66
2019-03-26T02:18:36.472Z,102300.45
2019-03-26T02:21:05.898Z,102305.17
2019-03-26T02:23:35.426Z,102296.17
2019-03-26T02:26:04.908Z,102293.59
2019-03-26T02:28:34.348Z,102291.88
2019-03-26T02:31:04.277Z,102295.27
2019-03-26T02:33:33.701Z,102295.73
2019-03-26T02:36:04.784Z,102298.34
2019-03-26T02:38:34.670Z,102294.92
2019-03-26T02:41:04.181Z,102300.49
2019-03-26T02:43:33.630Z,102303.88
2019-03-26T02:46:03.142Z,102300.45
2019-03-26T02:48:32.548Z,102299.12
2019-03-26T02:51:03.091Z,102299.49
2019-03-26T02:53:32.488Z,102298.59
2019-03-26T02:56:01.927Z,102305.54
2019-03-26T02:58:31.349Z,102301.61
2019-03-26T03:01:00.795Z,102299.93
2019-03-26T03:03:30.288Z,102300.81
2019-03-26T03:06:01.501Z,102302.52
2019-03-26T03:08:30.983Z,102296.95
2019-03-26T03:11:00.409Z,102298.20
2019-03-26T03:13:30.247Z,102300.34
2019-03-26T03:15:59.655Z,102308.55
2019-03-26T03:18:29.569Z,102300.70
2019-03-26T03:20:59.000Z,102293.37
2019-03-26T03:23:28.455Z,102287.30
2019-03-26T03:25:57.872Z,102294.19
2019-03-26T03:28:27.547Z,102288.92
2019-03-26T03:30:57.061Z,102289.79
2019-03-26T03:33:26.503Z,102298.36
2019-03-26T03:35:55.944Z,102292.33
2019-03-26T03:38:25.377Z,102303.14
2019-03-26T03:40:54.854Z,102302.62
2019-03-26T03:43:24.292Z,102299.91
2019-03-26T03:45:56.814Z,102294.84
2019-03-26T03:48:26.470Z,102292.25
2019-03-26T03:50:57.257Z,102297.80
2019-03-26T03:53:28.669Z,102293.75
2019-03-26T03:56:01.058Z,102303.33
2019-03-26T03:58:33.750Z,102303.35
2019-03-26T04:01:03.319Z,102303.73
2019-03-26T04:03:33.247Z,102295.61
2019-03-26T04:06:09.587Z,102298.97
2019-03-26T04:08:33.805Z,102299.91
2019-03-26T04:11:03.224Z,102297.77
2019-03-26T04:13:32.664Z,102297.32
2019-03-26T04:16:02.089Z,102299.86
2019-03-26T04:18:31.514Z,102297.30
2019-03-26T04:21:03.919Z,102295.07
2019-03-26T04:23:33.353Z,102290.86
2019-03-26T04:26:02.766Z,102295.20
2019-03-26T04:28:32.208Z,102295.25
2019-03-26T04:31:01.644Z,102296.47
2019-03-26T04:33:31.073Z,102300.38
2019-03-26T04:36:03.998Z,102303.38
2019-03-26T04:38:33.063Z,102304.67
2019-03-26T04:41:02.556Z,102309.45
2019-03-26T04:43:31.929Z,102305.55
2019-03-26T04:46:01.374Z,102299.91
2019-03-26T04:48:30.805Z,102304.59
2019-03-26T04:51:01.293Z,102301.63
2019-03-26T04:53:30.731Z,102307.75
2019-03-26T04:56:01.780Z,102293.91
2019-03-26T04:58:31.219Z,102307.26
2019-03-26T05:01:02.205Z,102298.23
2019-03-26T05:03:31.715Z,102300.43
2019-03-26T05:06:01.197Z,102293.00
2019-03-26T05:08:30.622Z,102295.59
2019-03-26T05:11:00.035Z,102305.52
2019-03-26T05:13:29.483Z,102306.80
2019-03-26T05:15:58.947Z,102301.13
2019-03-26T05:18:28.380Z,102305.08
2019-03-26T05:20:57.792Z,102303.38
2019-03-26T05:23:27.315Z,102305.55
2019-03-26T05:25:57.809Z,102309.89
2019-03-26T05:28:27.246Z,102311.14
2019-03-26T05:30:56.668Z,102315.88
2019-03-26T05:33:26.098Z,102306.80
2019-03-26T05:35:55.556Z,102308.91
2019-03-26T05:38:25.290Z,102305.16
2019-03-26T05:40:54.714Z,102290.86
2019-03-26T05:43:24.159Z,102284.56
2019-03-26T05:45:53.578Z,102294.87
2019-03-26T05:48:23.013Z,102291.53
2019-03-26T05:50:52.522Z,102288.45
2019-03-26T05:53:21.932Z,102287.63
2019-03-26T05:55:51.387Z,102301.13
2019-03-26T05:58:20.796Z,102297.14
2019-03-26T06:00:51.756Z,102295.48
2019-03-26T06:03:21.194Z,102286.42
2019-03-26T06:05:50.614Z,102291.65
2019-03-26T06:08:20.064Z,102280.20
2019-03-26T06:10:52.000Z,102287.48
2019-03-26T06:13:21.417Z,102295.31
2019-03-26T06:15:50.873Z,102304.05
2019-03-26T06:18:20.357Z,102303.34
2019-03-26T06:20:49.860Z,102295.58
2019-03-26T06:23:20.937Z,102300.77
2019-03-26T06:25:53.153Z,102296.06
2019-03-26T06:28:22.596Z,102292.20
2019-03-26T06:30:53.529Z,102289.50
2019-03-26T06:33:22.987Z,102287.03
2019-03-26T06:35:52.417Z,102295.00
2019-03-26T06:38:21.912Z,102294.30
2019-03-26T06:40:51.695Z,102294.50
2019-03-26T06:43:21.197Z,102294.93
2019-03-26T06:45:50.653Z,102300.93
2019-03-26T06:48:20.085Z,102300.81
2019-03-26T06:50:49.532Z,102301.20
2019-03-26T06:53:18.954Z,102312.59
2019-03-26T06:55:48.385Z,102306.66
2019-03-26T06:58:17.814Z,102296.34
2019-03-26T07:00:47.323Z,102305.91
2019-03-26T07:03:16.739Z,102314.11
2019-03-26T07:05:46.178Z,102310.77
2019-03-26T07:08:15.615Z,102322.58
2019-03-26T07:10:45.041Z,102318.77
2019-03-26T07:13:14.503Z,102318.86
2019-03-26T07:15:43.981Z,102314.05
2019-03-26T07:18:14.498Z,102314.59
2019-03-26T07:20:44.070Z,102313.43
2019-03-26T07:23:13.646Z,102311.02
2019-03-26T07:25:43.196Z,102315.44
2019-03-26T07:28:14.243Z,102326.66
2019-03-26T07:30:45.607Z,102330.98
2019-03-26T07:33:15.095Z,102326.20
2019-03-26T07:35:44.599Z,102332.25
2019-03-26T07:38:14.074Z,102332.38
2019-03-26T07:40:43.586Z,102334.43
2019-03-26T07:43:13.062Z,102335.13
2019-03-26T07:45:42.567Z,102330.83
2019-03-26T07:48:11.981Z,102335.45
2019-03-26T07:50:41.426Z,102321.11
2019-03-26T07:53:10.845Z,102328.22
2019-03-26T07:55:40.358Z,102326.90
2019-03-26T07:58:09.768Z,102329.09
2019-03-26T08:00:39.645Z,102332.52
2019-03-26T08:03:09.122Z,102336.38
2019-03-26T08:05:38.566Z,102339.76
2019-03-26T08:08:08.085Z,102340.97
2019-03-26T08:10:39.251Z,102341.86
2019-03-26T08:13:08.793Z,102343.62
2019-03-26T08:15:38.248Z,102332.41
2019-03-26T08:18:07.659Z,102332.11
2019-03-26T08:20:37.144Z,102330.41
2019-03-26T08:23:06.724Z,102322.65
2019-03-26T08:25:36.382Z,102323.15
2019-03-26T08:28:05.944Z,102322.78
2019-03-26T08:30:35.358Z,102322.39
2019-03-26T08:33:05.017Z,102323.27
2019-03-26T08:35:34.574Z,102331.95
2019-03-26T08:38:12.440Z,102335.33
2019-03-26T08:40:35.215Z,102330.55
2019-03-26T08:43:04.716Z,102343.94
2019-03-26T08:45:34.179Z,102342.34
2019-03-26T08:48:03.775Z,102335.91
2019-03-26T08:50:33.204Z,102337.21
2019-03-26T08:53:02.623Z,102321.64
2019-03-26T08:55:32.144Z,102323.52
2019-03-26T08:58:01.541Z,102321.56
2019-03-26T09:00:32.221Z,102316.04
2019-03-26T09:03:01.808Z,102308.34
2019-03-26T09:05:31.254Z,102300.53
2019-03-26T09:08:00.702Z,102300.05
2019-03-26T09:10:30.171Z,102294.77
2019-03-26T09:12:59.762Z,102287.77
2019-03-26T09:15:29.178Z,102282.09
2019-03-26T09:17:58.592Z,102279.89
2019-03-26T09:20:28.014Z,102269.86
2019-03-26T09:22:57.424Z,102278.48
2019-03-26T09:25:26.950Z,102278.55
2019-03-26T09:27:56.540Z,102285.09
2019-03-26T09:30:26.947Z,102270.80
2019-03-26T09:32:56.380Z,102273.14
2019-03-26T09:35:25.902Z,102274.14
2019-03-26T09:37:55.402Z,102266.87
2019-03-26T09:40:24.859Z,102266.39
2019-03-26T09:42:54.435Z,102256.42
2019-03-26T09:45:23.959Z,102258.61
2019-03-26T09:47:53.374Z,102254.70
2019-03-26T09:50:31.073Z,102254.64
2019-03-26T09:53:00.665Z,102257.64
2019-03-26T09:55:30.327Z,102260.17
2019-03-26T09:57:59.746Z,102268.83
2019-03-26T10:00:29.298Z,102258.86
2019-03-26T10:02:58.828Z,102263.24
2019-03-26T10:05:28.351Z,102262.92
2019-03-26T10:07:57.839Z,102270.77
2019-03-26T10:10:28.936Z,102259.08
2019-03-26T10:12:58.431Z,102255.53
2019-03-26T10:15:27.880Z,102252.52
2019-03-26T10:17:57.338Z,102253.34
2019-03-26T10:20:26.944Z,102255.92
2019-03-26T10:22:56.529Z,102254.16
2019-03-26T10:25:26.468Z,102252.91
2019-03-26T10:27:56.056Z,102246.28
2019-03-26T10:30:34.948Z,102264.05
2019-03-26T10:33:05.208Z,102260.95
2019-03-26T10:35:34.798Z,102264.46
2019-03-26T10:38:05.053Z,102265.70
2019-03-26T10:40:36.460Z,102271.27
2019-03-26T10:43:08.861Z,102259.98
2019-03-26T10:45:38.367Z,102260.41
2019-03-26T10:48:07.928Z,102258.76
2019-03-26T10:50:37.505Z,102253.56
2019-03-26T10:53:06.984Z,102255.39
2019-03-26T10:55:36.410Z,102263.72
2019-03-26T10:58:06.059Z,102262.08
2019-03-26T11:00:35.776Z,102259.91
2019-03-26T11:03:05.285Z,102269.41
2019-03-26T11:05:34.756Z,102261.59
2019-03-26T11:08:04.325Z,102253.73
2019-03-26T11:10:33.725Z,102258.61
2019-03-26T11:13:03.375Z,102249.75
2019-03-26T11:15:32.935Z,102239.84
2019-03-26T11:18:02.584Z,102232.51
2019-03-26T11:20:32.161Z,102234.23
2019-03-26T11:23:01.709Z,102227.27
2019-03-26T11:25:31.296Z,102227.70
2019-03-26T11:28:00.783Z,102228.59
2019-03-26T11:30:30.352Z,102224.69
2019-03-26T11:32:59.827Z,102228.15
2019-03-26T11:35:29.338Z,102219.48
2019-03-26T11:37:58.827Z,102219.47
2019-03-26T11:40:28.491Z,102215.55
2019-03-26T11:42:57.899Z,102213.37
2019-03-26T11:45:28.473Z,102211.62
2019-03-26T11:47:57.894Z,102217.70
2019-03-26T11:50:27.413Z,102217.75
2019-03-26T11:52:56.856Z,102199.92
2019-03-26T11:55:26.297Z,102202.08
2019-03-26T11:57:55.721Z,102201.66
2019-03-26T12:00:26.799Z,102208.20
2019-03-26T12:02:56.209Z,102210.80
2019-03-26T12:05:25.638Z,102198.63
2019-03-26T12:07:55.121Z,102209.03
2019-03-26T12:10:24.543Z,102213.39
2019-03-26T12:12:54.027Z,102216.00
2019-03-26T12:15:23.599Z,102213.82
2019-03-26T12:17:53.005Z,102207.73
2019-03-26T12:20:22.453Z,102212.97
2019-03-26T12:22:51.940Z,102213.40
2019-03-26T12:25:21.429Z,102213.42
2019-03-26T12:27:50.889Z,102211.68
2019-03-26T12:30:31.967Z,102219.06
2019-03-26T12:33:01.544Z,102210.36
2019-03-26T12:35:31.297Z,102218.19
2019-03-26T12:38:02.314Z,102219.92
2019-03-26T12:40:32.805Z,102225.55
2019-03-26T12:43:02.337Z,102219.02
2019-03-26T12:45:31.840Z,102226.41
2019-03-26T12:48:01.291Z,102233.31
2019-03-26T12:50:32.171Z,102236.34
2019-03-26T12:53:01.855Z,102243.66
2019-03-26T12:55:31.381Z,102251.84
2019-03-26T12:58:00.873Z,102251.81
2019-03-26T13:00:33.498Z,102261.25
2019-03-26T13:03:02.910Z,102262.45
2019-03-26T13:05:32.416Z,102259.67
2019-03-26T13:08:01.843Z,102248.40
2019-03-26T13:10:31.423Z,102249.69
2019-03-26T13:13:00.855Z,102257.81
2019-03-26T13:15:31.360Z,102256.98
2019-03-26T13:18:01.183Z,102254.47
2019-03-26T13:20:30.691Z,102248.48
2019-03-26T13:23:00.105Z,102244.23
2019-03-26T13:25:29.610Z,102245.59
2019-03-26T13:27:59.050Z,102236.91
2019-03-26T13:30:28.553Z,102240.34
2019-03-26T13:32:57.962Z,102237.80
2019-03-26T13:35:27.398Z,102238.68
2019-03-26T13:37:56.917Z,102242.16
2019-03-26T13:40:27.728Z,102243.46
2019-03-26T13:42:57.560Z,102240.41
2019-03-26T13:45:27.062Z,102248.25
2019-03-26T13:47:56.556Z,102255.66
2019-03-26T13:50:28.862Z,102250.92
2019-03-26T13:52:58.293Z,102250.51
2019-03-26T13:55:27.732Z,102247.95
2019-03-26T13:57:57.294Z,102248.02
2019-03-26T14:00:38.270Z,102247.60
2019-03-26T14:03:07.864Z,102251.09
2019-03-26T14:05:37.396Z,102255.05
2019-03-26T14:08:07.042Z,102255.90
2019-03-26T14:10:41.298Z,102262.80
2019-03-26T14:13:07.700Z,102259.34
2019-03-26T14:15:37.615Z,102261.14
2019-03-26T14:18:07.125Z,102251.14
2019-03-26T14:20:36.561Z,102262.00
2019-03-26T14:23:06.122Z,102248.15
2019-03-26T14:25:36.102Z,102247.25
2019-03-26T14:28:05.979Z,102254.22
2019-03-26T14:30:38.183Z,102258.09
2019-03-26T14:33:09.201Z,102263.73
2019-03-26T14:35:38.682Z,102252.02
2019-03-26T14:38:08.248Z,102253.75
2019-03-26T14:40:37.810Z,102254.14
2019-03-26T14:43:07.452Z,102258.89
2019-03-26T14:45:36.995Z,102257.59
2019-03-26T14:48:06.570Z,102255.45
2019-03-26T14:50:36.162Z,102258.02
2019-03-26T14:53:05.787Z,102259.31
2019-03-26T14:55:38.110Z,102250.59
2019-03-26T14:58:07.527Z,102256.17
2019-03-26T15:00:37.331Z,102257.47
2019-03-26T15:03:07.050Z,102270.48
2019-03-26T15:05:36.476Z,102270.02
2019-03-26T15:08:06.023Z,102275.64
2019-03-26T15:10:35.774Z,102274.37
2019-03-26T15:13:05.255Z,102275.64
2019-03-26T15:15:36.589Z,102276.98
2019-03-26T15:18:06.975Z,102285.20
2019-03-26T15:20:36.463Z,102286.93
2019-03-26T15:23:05.986Z,102286.50
2019-03-26T15:25:35.485Z,102303.36
2019-03-26T15:28:05.962Z,102296.02
2019-03-26T15:30:36.425Z,102298.20
2019-03-26T15:33:06.633Z,102295.16
2019-03-26T15:35:37.095Z,102299.11
2019-03-26T15:38:06.604Z,102293.90
2019-03-26T15:40:36.164Z,102300.03
2019-03-26T15:43:05.798Z,102297.01
2019-03-26T15:45:35.295Z,102295.62
2019-03-26T15:48:04.888Z,102299.98
2019-03-26T15:50:45.150Z,102303.83
2019-03-26T15:53:15.834Z,102302.52
2019-03-26T15:55:45.712Z,102299.94
2019-03-26T15:58:16.238Z,102300.34
2019-03-26T16:00:45.661Z,102306.02
2019-03-26T16:03:15.206Z,102305.14
2019-03-26T16:05:44.724Z,102300.36
2019-03-26T16:08:14.132Z,102304.26
2019-03-26T16:10:43.584Z,102302.53
2019-03-26T16:13:13.033Z,102304.71
2019-03-26T16:15:44.787Z,102316.84
2019-03-26T16:18:13.736Z,102316.42
2019-03-26T16:20:43.309Z,102320.75
2019-03-26T16:23:12.817Z,102316.79
2019-03-26T16:25:43.281Z,102321.14
2019-03-26T16:28:12.781Z,102320.25
2019-03-26T16:30:42.256Z,102319.31
2019-03-26T16:33:11.715Z,102320.17
2019-03-26T16:35:41.138Z,102314.92
2019-03-26T16:38:10.728Z,102320.09
2019-03-26T16:40:40.136Z,102321.35
2019-03-26T16:43:09.686Z,102316.56
2019-03-26T16:45:39.139Z,102327.41
2019-03-26T16:48:08.729Z,102324.33
2019-03-26T16:50:38.375Z,102335.64
2019-03-26T16:53:07.851Z,102328.31
2019-03-26T16:55:37.362Z,102325.23
2019-03-26T16:58:06.924Z,102329.12
2019-03-26T17:00:37.995Z,102325.64
2019-03-26T17:03:08.182Z,102331.30
2019-03-26T17:05:37.687Z,102327.35
2019-03-26T17:08:07.675Z,102333.44
2019-03-26T17:10:37.164Z,102331.23
2019-03-26T17:13:06.675Z,102335.13
2019-03-26T17:15:37.678Z,102336.02
2019-03-26T17:18:07.163Z,102328.23
2019-03-26T17:20:36.746Z,102342.12
2019-03-26T17:23:06.225Z,102336.91
2019-03-26T17:25:35.658Z,102340.39
2019-03-26T17:28:05.277Z,102337.73
2019-03-26T17:30:34.788Z,102346.34
2019-03-26T17:33:04.276Z,102332.94
2019-03-26T17:35:33.727Z,102339.91
2019-03-26T17:38:03.230Z,102347.16
2019-03-26T17:40:32.667Z,102349.34
2019-03-26T17:43:02.120Z,102347.14
2019-03-26T17:45:31.793Z,102353.20
2019-03-26T17:48:01.302Z,102354.92
2019-03-26T17:50:30.726Z,102362.72
2019-03-26T17:53:01.563Z,102356.63
2019-03-26T17:55:37.887Z,102357.05
2019-03-26T17:58:07.313Z,102359.22
2019-03-26T18:00:39.460Z,102360.50
2019-03-26T18:03:09.420Z,102361.83
2019-03-26T18:05:39.651Z,102367.44
2019-03-26T18:08:09.191Z,102363.53
2019-03-26T18:10:38.622Z,102367.41
2019-03-26T18:13:08.055Z,102366.12
2019-03-26T18:15:37.648Z,102364.33
2019-03-26T18:18:07.224Z,102360.88
2019-03-26T18:20:38.370Z,102362.17
2019-03-26T18:23:10.104Z,102363.48
2019-03-26T18:25:41.964Z,102362.62
2019-03-26T18:28:13.126Z,102379.98
2019-03-26T18:30:42.628Z,102373.43
2019-03-26T18:33:12.146Z,102380.39
2019-03-26T18:35:41.708Z,102388.61
2019-03-26T18:38:11.297Z,102381.70
2019-03-26T18:40:40.844Z,102383.88
2019-03-26T18:43:11.424Z,102389.48
2019-03-26T18:45:41.270Z,102395.13
2019-03-26T18:48:11.870Z,102392.08
2019-03-26T18:50:41.512Z,102387.72
2019-03-26T18:53:11.099Z,102392.91
2019-03-26T18:55:40.586Z,102392.98
2019-03-26T18:58:10.051Z,102389.91
2019-03-26T19:00:42.888Z,102392.09
2019-03-26T19:03:12.416Z,102405.96
2019-03-26T19:05:41.907Z,102405.89
2019-03-26T19:08:14.037Z,102411.48
2019-03-26T19:10:43.525Z,102421.05
2019-03-26T19:13:19.304Z,102414.16
2019-03-26T19:15:46.323Z,102421.08
2019-03-26T19:18:15.730Z,102418.07
2019-03-26T19:20:45.179Z,102423.26
2019-03-26T19:23:14.599Z,102428.44
2019-03-26T19:25:44.451Z,102425.83
2019-03-26T19:28:13.953Z,102427.99
2019-03-26T19:30:44.249Z,102432.28
2019-03-26T19:33:17.431Z,102430.59
2019-03-26T19:35:46.886Z,102434.48
2019-03-26T19:38:18.243Z,102447.03
2019-03-26T19:40:47.742Z,102444.02
2019-03-26T19:43:17.640Z,102440.95
2019-03-26T19:45:47.120Z,102447.45
2019-03-26T19:48:16.570Z,102441.83
2019-03-26T19:50:46.127Z,102447.44
2019-03-26T19:53:16.641Z,102453.53
2019-03-26T19:55:46.055Z,102458.66
2019-03-26T19:58:15.497Z,102465.15
2019-03-26T20:00:44.907Z,102457.32
2019-03-26T20:03:14.502Z,102463.83
2019-03-26T20:05:43.985Z,102461.70
2019-03-26T20:08:13.432Z,102463.41
2019-03-26T20:10:46.315Z,102470.34
2019-03-26T20:13:24.329Z,102473.01
2019-03-26T20:15:49.984Z,102470.73
2019-03-26T20:18:20.039Z,102481.19
2019-03-26T20:20:52.331Z,102485.87
2019-03-26T20:23:21.735Z,102479.81
2019-03-26T20:25:54.226Z,102476.31
2019-03-26T20:28:26.589Z,102487.98
2019-03-26T20:30:54.976Z,102490.18
2019-03-26T20:33:24.474Z,102489.73
2019-03-26T20:35:53.960Z,102494.84
2019-03-26T20:38:23.478Z,102491.34
2019-03-26T20:40:53.023Z,102491.73
2019-03-26T20:43:22.528Z,102494.42
2019-03-26T20:45:53.825Z,102499.12
2019-03-26T20:48:23.283Z,102493.41
2019-03-26T20:50:56.976Z,102493.28
2019-03-26T20:53:27.582Z,102502.34
2019-03-26T20:55:57.590Z,102504.95
2019-03-26T20:58:29.570Z,102501.00
2019-03-26T21:00:59.074Z,102505.70
2019-03-26T21:03:29.714Z,102503.55
2019-03-26T21:05:59.221Z,102505.66
2019-03-26T21:08:28.753Z,102511.72
2019-03-26T21:10:58.173Z,102514.23
2019-03-26T21:13:27.681Z,102505.99
2019-03-26T21:16:00.889Z,102509.42
2019-03-26T21:18:32.018Z,102505.11
2019-03-26T21:21:03.169Z,102513.30
2019-03-26T21:23:32.583Z,102514.58
2019-03-26T21:26:02.244Z,102515.51
2019-03-26T21:28:36.462Z,102514.70
2019-03-26T21:31:08.208Z,102515.08
2019-03-26T21:33:37.633Z,102512.95
2019-03-26T21:36:08.927Z,102517.30
2019-03-26T21:38:38.336Z,102517.20
2019-03-26T21:41:07.834Z,102510.72
2019-03-26T21:43:37.267Z,102515.92
2019-03-26T21:46:06.699Z,102526.30
2019-03-26T21:48:36.137Z,102524.59
2019-03-26T21:51:05.682Z,102527.23
2019-03-26T21:53:38.637Z,102535.91
2019-03-26T21:56:08.087Z,102535.06
2019-03-26T21:58:39.461Z,102536.38
2019-03-26T22:01:09.111Z,102543.30
2019-03-26T22:03:38.601Z,102541.61
2019-03-26T22:06:08.041Z,102541.98
2019-03-26T22:08:37.461Z,102542.78
2019-03-26T22:11:06.905Z,102545.86
2019-03-26T22:13:36.872Z,102542.80
2019-03-26T22:16:07.553Z,102544.56
2019-03-26T22:18:36.965Z,102550.05
2019-03-26T22:21:06.613Z,102552.13
2019-03-26T22:23:37.191Z,102560.31
2019-03-26T22:26:06.615Z,102563.17
2019-03-26T22:28:36.027Z,102564.37
2019-03-26T22:31:05.455Z,102567.75
2019-03-26T22:33:34.870Z,102579.77
2019-03-26T22:36:04.543Z,102576.78
2019-03-26T22:38:33.951Z,102571.98
2019-03-26T22:41:03.468Z,102574.23
2019-03-26T22:43:32.899Z,102569.83
2019-03-26T22:46:02.344Z,102571.97
2019-03-26T22:48:31.746Z,102561.56
2019-03-26T22:51:01.221Z,102576.66
2019-03-26T22:53:30.732Z,102580.13
2019-03-26T22:56:00.248Z,102585.27
2019-03-26T22:58:29.665Z,102585.61
2019-03-26T23:00:59.140Z,102579.95
2019-03-26T23:03:31.670Z,102574.74
2019-03-26T23:06:01.090Z,102576.55
2019-03-26T23:08:30.591Z,102576.90
2019-03-26T23:11:00.139Z,102572.55
2019-03-26T23:13:29.653Z,102574.20
2019-03-26T23:15:59.226Z,102575.44
2019-03-26T23:18:28.738Z,102573.59
2019-03-26T23:20:58.167Z,102587.47
2019-03-26T23:23:27.610Z,102582.27
2019-03-26T23:25:57.136Z,102585.29
2019-03-26T23:28:26.594Z,102584.41
2019-03-26T23:30:58.207Z,102588.25
2019-03-26T23:33:27.728Z,102576.51
2019-03-26T23:35:57.211Z,102576.02
2019-03-26T23:38:26.646Z,102577.67
2019-03-26T23:40:56.161Z,102581.16
2019-03-26T23:43:26.540Z,102577.52
2019-03-26T23:45:55.980Z,102578.30
2019-03-26T23:48:25.395Z,102576.95
2019-03-26T23:50:56.361Z,102583.68
2019-03-26T23:53:25.909Z,102586.55
2019-03-26T23:55:55.362Z,102588.32
2019-03-26T23:58:24.793Z,102582.23
